KTPL/TPL METAR and TAF weather

Enter ICAO airport designator
Station Type Date Time Source
KTPL METAR 2022/01/19 18:51 UTC NOAA

KTPL 191851Z AUTO 21010KT 10SM SCT120 23/13 A2991 RMK AO2 SLP119 T02330133


Station Type Date Time Source
KTPL Decoded METAR 2022/01/19 18:51 UTC NOAA

Temple, Draughon-Miller Central Texas Regional Airport, TX, United States (KTPL) 31-09N 097-24W
Jan 19, 2022 - 01:51 PM EST / 2022.01.19 1851 UTC
Wind: from the SSW (210 degrees) at 12 MPH (10 KT):0
Visibility: 10 mile(s):0
Sky conditions: partly cloudy
Temperature: 73.9 F (23.3 C)
Dew Point: 55.9 F (13.3 C)
Relative Humidity: 53%
Pressure (altimeter): 29.91 in. Hg (1012 hPa)
ob: KTPL 191851Z AUTO 21010KT 10SM SCT120 23/13 A2991 RMK AO2 SLP119 T02330133
cycle: 19

Station Type Date Time Source
KTPL TAF UTC NOAA

Error!

Example: see airport list